Strona główna
METAR-TAF:

METAR-TAF

Lotnisko :

Port lotniczy Londyn-Southend

Londyn-Southend, Anglia

Szerokość geograficzna: 51-34N, Długość geograficzna: 000-42E, wysokość: 15 m

Aktualna obserwacja pogody

Raport powstał 29 minut temu, godzina 00:50 UTC
Wiatr 4 kt od południowy zachód
Temperatura -2°C
Wilgotność 93%
Ciśnienie 1043 hPa
Widzialność: 9000 m

METAR: EGMC 210050Z 23004KT 9000 NSC M02/M03 Q1043

czas: 01:19 (01:19 UTC)

Prognoza

Raport powstał 2 godziny i 15 minut temu, godzina 23:04 UTC
Prognoza ważna od 21 godzina 00 UTC do 21 godzina 09 UTC
Wiatr 3 kt od zachodnio-południowy zachód
Widzialność: 8000 m
Przejściowo
od 21 godzina 02 UTC do 21 godzina 09 UTC
Widzialność: 4000 m
zamglenie
Prawdopodobieństwo 30%
od 21 godzina 03 UTC do 21 godzina 09 UTC
Widzialność: 0300 m
Przerywane chmury na wysokości niższej niż 100 ft
marznąca mgła

TAF: EGMC 202304Z 2100/2109 24003KT 8000 NSC TEMPO 2102/2109 4000 BR PROB30 2103/2109 0300 FZFG BKN000

Obserwacja i prognoza pogody dla ponad 4000 lotnisk (raport METAR i TAF).

Dostępne stacje oznaczono żółtymi i czerwonymi punktami na mapie.

Najedź kursorem aby zobaczyć nazwę stacji.

Kliknij aby zobaczyć obserwacje i prognozy pogody.

Aby zmienić mapę: kliknij na zielony przycisk z czarnym krzyżykiem, aby powiększyć; na zielony przycisk z myślnikiem, aby pomniejszyć; na zielone strzałki, aby przejść do map sąsiednich.


METAR-TAF: